createdAt,value
2023-09-05T00:00:53.750Z,100991.91
2023-09-05T00:03:58.380Z,100990.72
2023-09-05T00:07:01.170Z,100990.72
2023-09-05T00:10:09.294Z,100981.63
2023-09-05T00:13:12.338Z,100989.94
2023-09-05T00:16:15.388Z,100982.44
2023-09-05T00:19:18.347Z,100984.41
2023-09-05T00:22:21.310Z,100980.47
2023-09-05T00:25:23.961Z,100982.06
2023-09-05T00:28:26.982Z,100978.88
2023-09-05T00:31:29.658Z,100977.28
2023-09-05T00:34:34.376Z,100976.50
2023-09-05T00:37:38.372Z,100981.22
2023-09-05T00:40:41.403Z,100982.81
2023-09-05T00:43:44.032Z,100982.03
2023-09-05T00:46:48.327Z,100977.69
2023-09-05T00:49:51.353Z,100978.47
2023-09-05T00:52:54.392Z,100965.78
2023-09-05T00:55:57.206Z,100968.16
2023-09-05T00:59:00.529Z,100966.97
2023-09-05T01:02:03.125Z,100964.59
2023-09-05T01:05:08.283Z,100965.41
2023-09-05T01:08:17.156Z,100974.47
2023-09-05T01:11:20.278Z,100968.16
2023-09-05T01:14:22.913Z,100978.03
2023-09-05T01:17:25.861Z,100969.34
2023-09-05T01:20:38.236Z,100972.09
2023-09-05T01:23:49.781Z,100974.50
2023-09-05T01:26:54.410Z,100972.47
2023-09-05T01:29:57.912Z,100986.31
2023-09-05T01:33:00.604Z,100979.19
2023-09-05T01:36:03.896Z,100985.84
2023-09-05T01:39:07.057Z,100983.47
2023-09-05T01:42:10.162Z,100975.59
2023-09-05T01:45:12.842Z,100981.88
2023-09-05T01:48:15.936Z,100973.16
2023-09-05T01:51:18.554Z,100974.75
2023-09-05T01:54:21.490Z,100975.50
2023-09-05T01:57:24.151Z,100979.09
2023-09-05T02:00:27.126Z,100988.19
2023-09-05T02:03:30.337Z,100990.47
2023-09-05T02:06:33.201Z,100984.94
2023-09-05T02:09:36.645Z,100979.06
2023-09-05T02:12:39.362Z,100984.56
2023-09-05T02:15:44.216Z,100986.53
2023-09-05T02:18:48.458Z,100984.88
2023-09-05T02:21:51.473Z,100980.56
2023-09-05T02:24:54.351Z,100980.81
2023-09-05T02:27:57.324Z,100981.22
2023-09-05T02:31:06.234Z,100981.16
2023-09-05T02:34:09.663Z,100967.28
2023-09-05T02:37:13.229Z,100968.03
2023-09-05T02:40:16.383Z,100965.66
2023-09-05T02:43:19.041Z,100970.03
2023-09-05T02:46:22.520Z,100974.03
2023-09-05T02:49:25.265Z,100974.78
2023-09-05T02:52:38.098Z,100949.94
2023-09-05T02:55:48.354Z,100988.31
2023-09-05T02:58:51.287Z,100981.56
2023-09-05T03:01:54.013Z,100980.75
2023-09-05T03:04:56.970Z,100986.19
2023-09-05T03:07:59.648Z,100984.50
2023-09-05T03:11:02.635Z,100982.06
2023-09-05T03:14:05.545Z,100993.69
2023-09-05T03:17:11.014Z,100976.31
2023-09-05T03:20:16.878Z,100979.13
2023-09-05T03:23:20.315Z,100967.16
2023-09-05T03:26:23.316Z,100953.56
2023-09-05T03:29:26.367Z,100974.16
2023-09-05T03:32:29.561Z,100984.28
2023-09-05T03:35:33.112Z,100981.88
2023-09-05T03:38:36.191Z,100996.91
2023-09-05T03:41:39.187Z,100985.16
2023-09-05T03:44:42.270Z,101005.22
2023-09-05T03:47:59.450Z,101002.59
2023-09-05T03:51:03.167Z,100994.62
2023-09-05T03:54:06.255Z,101010.06
2023-09-05T03:57:09.306Z,101004.38
2023-09-05T04:00:14.684Z,101011.62
2023-09-05T04:03:18.645Z,101011.09
2023-09-05T04:06:21.671Z,101013.37
2023-09-05T04:09:24.608Z,101011.44
2023-09-05T04:12:28.620Z,101016.84
2023-09-05T04:15:31.692Z,101017.31
2023-09-05T04:18:37.780Z,101028.00
2023-09-05T04:21:43.730Z,101028.66
2023-09-05T04:24:46.447Z,101020.28
2023-09-05T04:27:52.166Z,101019.16
2023-09-05T04:30:56.777Z,101027.50
2023-09-05T04:33:59.922Z,101016.44
2023-09-05T04:37:02.569Z,101019.69
2023-09-05T04:40:07.337Z,101021.50
2023-09-05T04:43:11.675Z,101020.66
2023-09-05T04:46:15.366Z,101029.38
2023-09-05T04:49:18.093Z,101030.41
2023-09-05T04:52:22.609Z,101029.72
2023-09-05T04:55:25.883Z,101022.28
2023-09-05T04:58:30.511Z,101000.75
2023-09-05T05:01:33.562Z,101028.69
2023-09-05T05:04:38.667Z,101026.03
2023-09-05T05:07:42.202Z,101023.69
2023-09-05T05:10:45.172Z,101029.78
2023-09-05T05:13:47.705Z,101030.53
2023-09-05T05:16:51.190Z,101040.41
2023-09-05T05:19:54.161Z,101040.09
2023-09-05T05:22:57.209Z,101040.87
2023-09-05T05:26:00.640Z,101037.69
2023-09-05T05:29:04.120Z,101037.91
2023-09-05T05:32:06.917Z,101041.03
2023-09-05T05:35:10.839Z,101045.38
2023-09-05T05:38:13.483Z,101039.47
2023-09-05T05:41:16.600Z,101049.81
2023-09-05T05:44:19.285Z,101045.09
2023-09-05T05:47:23.943Z,101044.75
2023-09-05T05:50:26.548Z,101046.72
2023-09-05T05:53:29.762Z,101048.31
2023-09-05T05:56:32.455Z,101048.31
2023-09-05T05:59:35.604Z,101055.41
2023-09-05T06:02:38.284Z,101060.25
2023-09-05T06:05:41.228Z,101069.75
2023-09-05T06:08:44.020Z,101043.31
2023-09-05T06:11:47.787Z,101053.97
2023-09-05T06:14:50.507Z,101065.47
2023-09-05T06:17:53.751Z,101069.81
2023-09-05T06:20:56.570Z,101073.75
2023-09-05T06:23:59.994Z,101061.47
2023-09-05T06:27:02.746Z,101080.50
2023-09-05T06:30:06.437Z,101076.12
2023-09-05T06:33:10.245Z,101079.69
2023-09-05T06:36:13.413Z,101088.00
2023-09-05T06:39:16.061Z,101082.81
2023-09-05T06:42:19.145Z,101091.53
2023-09-05T06:45:22.399Z,101082.78
2023-09-05T06:48:25.619Z,101090.63
2023-09-05T06:51:28.479Z,101082.75
2023-09-05T06:54:32.069Z,101081.94
2023-09-05T06:57:34.907Z,101083.81
2023-09-05T07:00:37.826Z,101084.63
2023-09-05T07:03:40.511Z,101102.06
2023-09-05T07:06:43.498Z,101086.16
2023-09-05T07:09:46.134Z,101077.37
2023-09-05T07:12:49.070Z,101089.94
2023-09-05T07:15:52.800Z,101088.28
2023-09-05T07:18:55.827Z,101096.50
2023-09-05T07:21:58.855Z,101088.19
2023-09-05T07:25:02.016Z,101111.13
2023-09-05T07:28:06.032Z,101101.94
2023-09-05T07:31:09.775Z,101098.19
2023-09-05T07:34:12.594Z,101094.19
2023-09-05T07:37:17.261Z,101105.25
2023-09-05T07:40:20.036Z,101097.25
2023-09-05T07:43:22.968Z,101097.28
2023-09-05T07:46:25.696Z,101101.47
2023-09-05T07:49:28.724Z,101092.09
2023-09-05T07:52:34.258Z,101099.66
2023-09-05T07:55:37.279Z,101098.59
2023-09-05T07:58:39.940Z,101093.63
2023-09-05T08:01:43.029Z,101103.50
2023-09-05T08:04:46.126Z,101103.78
2023-09-05T08:07:49.092Z,101105.16
2023-09-05T08:10:52.135Z,101100.41
2023-09-05T08:13:57.018Z,101102.00
2023-09-05T08:17:00.289Z,101087.56
2023-09-05T08:20:04.520Z,101091.81
2023-09-05T08:23:07.702Z,101085.75
2023-09-05T08:26:12.650Z,101085.63
2023-09-05T08:29:15.944Z,101085.41
2023-09-05T08:32:18.666Z,101078.63
2023-09-05T08:35:21.768Z,101090.38
2023-09-05T08:38:27.292Z,101087.50
2023-09-05T08:41:31.386Z,101089.00
2023-09-05T08:44:40.450Z,101089.19
2023-09-05T08:47:43.563Z,101094.63
2023-09-05T08:50:46.278Z,101091.22
2023-09-05T08:54:01.690Z,101097.16
2023-09-05T08:57:18.438Z,101091.81
2023-09-05T09:00:23.115Z,101085.28
2023-09-05T09:03:27.740Z,101084.13
2023-09-05T09:06:31.235Z,101092.00
2023-09-05T09:09:44.595Z,101082.16
2023-09-05T09:12:55.638Z,101090.00
2023-09-05T09:15:59.070Z,101070.81
2023-09-05T09:19:04.568Z,101074.91
2023-09-05T09:22:09.465Z,101079.88
2023-09-05T09:25:24.256Z,101074.31
2023-09-05T09:28:33.456Z,101078.50
2023-09-05T09:31:38.587Z,101070.09
2023-09-05T09:34:42.459Z,101063.81
2023-09-05T09:37:50.287Z,101060.34
2023-09-05T09:40:53.479Z,101056.63
2023-09-05T09:43:57.267Z,101051.91
2023-09-05T09:47:01.889Z,101042.06
2023-09-05T09:50:05.607Z,101051.25
2023-09-05T09:53:12.936Z,101060.25
2023-09-05T09:56:20.180Z,101047.37
2023-09-05T09:59:27.911Z,101040.84
2023-09-05T10:02:31.481Z,101053.78
2023-09-05T10:05:34.437Z,101057.66
2023-09-05T10:08:42.061Z,101053.97
2023-09-05T10:11:47.075Z,101044.94
2023-09-05T10:14:50.675Z,101052.91
2023-09-05T10:17:55.966Z,101042.12
2023-09-05T10:21:04.320Z,101043.03
2023-09-05T10:24:08.201Z,101043.50
2023-09-05T10:27:12.674Z,101051.81
2023-09-05T10:30:15.647Z,101030.03
2023-09-05T10:33:19.016Z,101025.75
2023-09-05T10:36:44.229Z,101030.37
2023-09-05T10:39:48.581Z,101031.34
2023-09-05T10:42:56.178Z,101037.19
2023-09-05T10:46:03.855Z,101033.47
2023-09-05T10:49:16.004Z,101039.50
2023-09-05T10:52:20.742Z,101035.72
2023-09-05T10:55:26.835Z,101050.13
2023-09-05T10:58:58.021Z,101047.53
2023-09-05T11:02:06.401Z,101013.63
2023-09-05T11:05:13.614Z,101021.44
2023-09-05T11:08:24.458Z,101029.69
2023-09-05T11:11:27.859Z,101022.78
2023-09-05T11:14:38.658Z,101011.28
2023-09-05T11:17:45.978Z,101005.97
2023-09-05T11:21:00.426Z,100990.91
2023-09-05T11:24:04.051Z,101016.81
2023-09-05T11:27:10.433Z,101001.34
2023-09-05T11:30:17.456Z,100998.03
2023-09-05T11:33:20.892Z,100991.81
2023-09-05T11:36:24.427Z,100984.09
2023-09-05T11:39:31.067Z,100995.56
2023-09-05T11:42:33.837Z,100977.44
2023-09-05T11:52:20.337Z,100964.38
2023-09-05T11:55:27.988Z,100956.84
2023-09-05T11:58:32.192Z,100974.56
2023-09-05T12:01:35.316Z,100962.59
2023-09-05T12:04:39.463Z,100964.84
2023-09-05T12:07:43.277Z,100965.44
2023-09-05T12:10:53.396Z,100977.69
2023-09-05T12:13:58.978Z,100959.78
2023-09-05T12:17:02.238Z,100952.22
2023-09-05T12:20:10.262Z,100954.19
2023-09-05T12:23:24.580Z,100937.34
2023-09-05T12:26:41.800Z,100939.84
2023-09-05T12:29:46.201Z,100948.22
2023-09-05T12:32:49.432Z,100946.53
2023-09-05T12:35:52.700Z,100962.53
2023-09-05T12:38:55.416Z,100946.50
2023-09-05T12:42:00.517Z,100954.84
2023-09-05T12:45:03.620Z,100956.13
2023-09-05T12:48:08.768Z,100946.59
2023-09-05T12:51:12.968Z,100939.03
2023-09-05T12:54:16.164Z,100939.88
2023-09-05T12:57:18.962Z,100944.72
2023-09-05T13:00:22.307Z,100937.69
2023-09-05T13:03:26.975Z,100942.53
2023-09-05T13:06:30.673Z,100940.03
2023-09-05T13:09:34.104Z,100931.75
2023-09-05T13:12:37.475Z,100937.06
2023-09-05T13:15:44.693Z,100936.13
2023-09-05T13:18:47.873Z,100929.56
2023-09-05T13:21:50.662Z,100927.38
2023-09-05T13:24:53.753Z,100935.69
2023-09-05T13:27:56.577Z,100922.84
2023-09-05T13:31:00.101Z,100918.94
2023-09-05T13:34:02.991Z,100920.81
2023-09-05T13:37:06.128Z,100923.78
2023-09-05T13:40:09.513Z,100915.03
2023-09-05T13:43:13.925Z,100918.59
2023-09-05T13:46:16.750Z,100924.19
2023-09-05T13:49:20.349Z,100926.56
2023-09-05T13:52:23.116Z,100908.78
2023-09-05T13:55:27.360Z,100932.41
2023-09-05T13:58:30.116Z,100914.56
2023-09-05T14:01:33.140Z,100926.34
2023-09-05T14:04:36.165Z,100898.72
2023-09-05T14:07:41.688Z,100919.53
2023-09-05T14:10:47.618Z,100913.94
2023-09-05T14:13:50.826Z,100926.13
2023-09-05T14:16:56.187Z,100923.94
2023-09-05T14:19:59.301Z,100921.13
2023-09-05T14:23:02.494Z,100922.31
2023-09-05T14:26:05.168Z,100922.94
2023-09-05T14:29:08.796Z,100927.06
2023-09-05T14:32:11.612Z,100922.38
2023-09-05T14:35:14.774Z,100918.94
2023-09-05T14:38:17.419Z,100917.78
2023-09-05T14:41:21.595Z,100915.66
2023-09-05T14:44:24.480Z,100918.28
2023-09-05T14:47:27.799Z,100910.34
2023-09-05T14:50:30.454Z,100913.91
2023-09-05T14:53:33.481Z,100906.84
2023-09-05T14:56:37.083Z,100914.66
2023-09-05T14:59:40.201Z,100908.44
2023-09-05T15:02:43.102Z,100914.97
2023-09-05T15:05:46.167Z,100913.81
2023-09-05T15:08:48.880Z,100909.56
2023-09-05T15:11:51.818Z,100901.19
2023-09-05T15:14:54.642Z,100909.56
2023-09-05T15:17:57.689Z,100904.75
2023-09-05T15:21:00.350Z,100909.28
2023-09-05T15:24:07.305Z,100895.38
2023-09-05T15:27:10.143Z,100896.59
2023-09-05T15:30:17.206Z,100901.91
2023-09-05T15:33:20.195Z,100908.94
2023-09-05T15:36:23.203Z,100903.91
2023-09-05T15:39:26.008Z,100893.41
2023-09-05T15:42:29.312Z,100904.50
2023-09-05T15:45:32.771Z,100901.84
2023-09-05T15:48:36.129Z,100900.88
2023-09-05T15:51:39.357Z,100904.56
2023-09-05T15:54:44.840Z,100897.66
2023-09-05T15:57:47.929Z,100894.53
2023-09-05T16:00:52.301Z,100881.69
2023-09-05T16:03:56.149Z,100896.00
2023-09-05T16:06:59.033Z,100896.00
2023-09-05T16:10:03.599Z,100896.47
2023-09-05T16:13:09.092Z,100892.34
2023-09-05T16:16:18.947Z,100892.88
2023-09-05T16:19:24.531Z,100892.69
2023-09-05T16:22:28.563Z,100892.94
2023-09-05T16:25:31.313Z,100885.31
2023-09-05T16:28:34.414Z,100888.44
2023-09-05T16:31:38.292Z,100894.56
2023-09-05T16:34:41.752Z,100887.31
2023-09-05T16:37:44.515Z,100885.75
2023-09-05T16:40:48.716Z,100896.34
2023-09-05T16:43:51.419Z,100894.47
2023-09-05T16:46:54.372Z,100903.84
2023-09-05T16:49:57.825Z,100894.25
2023-09-05T16:53:00.808Z,100902.84
2023-09-05T16:56:03.509Z,100899.56
2023-09-05T16:59:06.592Z,100907.38
2023-09-05T17:02:09.365Z,100896.75
2023-09-05T17:05:12.685Z,100908.31
2023-09-05T17:08:15.348Z,100910.38
2023-09-05T17:11:18.382Z,100907.19
2023-09-05T17:14:21.034Z,100913.66
2023-09-05T17:17:24.043Z,100907.28
2023-09-05T17:20:27.132Z,100918.00
2023-09-05T17:23:30.503Z,100906.09
2023-09-05T17:26:33.522Z,100913.34
2023-09-05T17:29:36.471Z,100922.81
2023-09-05T17:32:39.257Z,100925.81
2023-09-05T17:35:42.569Z,100926.19
2023-09-05T17:38:45.779Z,100920.63
2023-09-05T17:41:51.277Z,100920.50
2023-09-05T17:44:55.704Z,100930.56
2023-09-05T17:47:58.717Z,100920.84
2023-09-05T17:51:02.007Z,100932.84
2023-09-05T17:54:05.260Z,100924.28
2023-09-05T17:57:08.033Z,100945.78
2023-09-05T18:00:11.973Z,100937.28
2023-09-05T18:03:15.759Z,100937.47
2023-09-05T18:06:19.142Z,100940.31
2023-09-05T18:09:22.167Z,100939.19
2023-09-05T18:12:25.183Z,100931.47
2023-09-05T18:15:28.218Z,100947.44
2023-09-05T18:18:31.505Z,100939.97
2023-09-05T18:21:36.840Z,100954.41
2023-09-05T18:24:40.174Z,100953.69
2023-09-05T18:27:45.912Z,100939.81
2023-09-05T18:30:49.155Z,100962.13
2023-09-05T18:33:53.229Z,100961.38
2023-09-05T18:36:56.853Z,100955.22
2023-09-05T18:40:01.439Z,100963.56
2023-09-05T18:43:04.987Z,100975.16
2023-09-05T18:46:13.951Z,100968.91
2023-09-05T18:49:17.318Z,100968.22
2023-09-05T18:52:20.288Z,100968.00
2023-09-05T18:55:23.566Z,100972.72
2023-09-05T18:58:27.050Z,100974.38
2023-09-05T19:01:30.510Z,100974.38
2023-09-05T19:04:33.607Z,100982.75
2023-09-05T19:07:36.876Z,100977.81
2023-09-05T19:10:40.022Z,100984.59
2023-09-05T19:13:43.674Z,100992.22
2023-09-05T19:16:46.707Z,100985.06
2023-09-05T19:19:49.923Z,100976.78
2023-09-05T19:22:52.640Z,100983.47
2023-09-05T19:25:56.338Z,100983.09
2023-09-05T19:28:59.478Z,100989.84
2023-09-05T19:32:03.208Z,100979.97
2023-09-05T19:35:09.601Z,100976.16
2023-09-05T19:38:14.512Z,100982.87
2023-09-05T19:41:18.406Z,100975.34
2023-09-05T19:44:21.765Z,100980.78
2023-09-05T19:47:24.471Z,100980.78
2023-09-05T19:50:28.763Z,100986.34
2023-09-05T19:53:31.464Z,100984.81
2023-09-05T19:56:34.914Z,100990.38
2023-09-05T19:59:38.471Z,100992.63
2023-09-05T20:02:41.805Z,101003.03
2023-09-05T20:05:45.661Z,100995.84
2023-09-05T20:08:49.025Z,100995.97
2023-09-05T20:11:53.862Z,101005.19
2023-09-05T20:14:58.256Z,101003.69
2023-09-05T20:18:01.991Z,101007.19
2023-09-05T20:21:05.264Z,101010.00
2023-09-05T20:24:08.969Z,101011.22
2023-09-05T20:27:12.516Z,101013.53
2023-09-05T20:30:16.568Z,101015.09
2023-09-05T20:33:20.327Z,100998.97
2023-09-05T20:36:24.093Z,101019.56
2023-09-05T20:39:27.129Z,101024.69
2023-09-05T20:42:30.239Z,101024.69
2023-09-05T20:45:36.829Z,101010.88
2023-09-05T20:48:40.266Z,101024.38
2023-09-05T20:51:43.200Z,101025.59
2023-09-05T20:54:46.179Z,101028.44
2023-09-05T20:57:48.869Z,101028.09
2023-09-05T21:00:52.889Z,101028.53
2023-09-05T21:03:55.832Z,101030.53
2023-09-05T21:06:59.122Z,101034.97
2023-09-05T21:10:03.475Z,101031.81
2023-09-05T21:13:06.742Z,101028.31
2023-09-05T21:16:10.347Z,101042.12
2023-09-05T21:19:13.632Z,101025.12
2023-09-05T21:22:19.982Z,101033.81
2023-09-05T21:25:23.047Z,101034.69
2023-09-05T21:28:26.547Z,101030.81
2023-09-05T21:31:29.852Z,101033.63
2023-09-05T21:34:32.694Z,101029.31
2023-09-05T21:37:35.926Z,101026.97
2023-09-05T21:40:38.670Z,101036.91
2023-09-05T21:43:41.655Z,101027.00
2023-09-05T21:46:44.362Z,101035.34
2023-09-05T21:49:47.418Z,101041.66
2023-09-05T21:52:50.118Z,101030.91
2023-09-05T21:55:52.994Z,101030.19
2023-09-05T21:58:55.744Z,101030.19
2023-09-05T22:01:58.855Z,101030.59
2023-09-05T22:05:04.188Z,101030.19
2023-09-05T22:08:08.146Z,101034.97
2023-09-05T22:11:11.251Z,101045.22
2023-09-05T22:14:13.965Z,101038.13
2023-09-05T22:17:16.974Z,101042.88
2023-09-05T22:20:24.208Z,101034.97
2023-09-05T22:23:30.075Z,101036.16
2023-09-05T22:26:32.720Z,101034.19
2023-09-05T22:29:36.583Z,101031.00
2023-09-05T22:32:40.696Z,101040.13
2023-09-05T22:35:43.720Z,101025.50
2023-09-05T22:38:47.242Z,101025.50
2023-09-05T22:41:50.703Z,101021.56
2023-09-05T22:44:53.434Z,101027.47
2023-09-05T22:47:56.401Z,101030.28
2023-09-05T22:50:59.153Z,101029.09
2023-09-05T22:54:02.119Z,101030.25
2023-09-05T22:57:05.472Z,101029.47
2023-09-05T23:00:14.912Z,101034.97
2023-09-05T23:03:20.444Z,101037.75
2023-09-05T23:06:23.852Z,101024.72
2023-09-05T23:09:27.384Z,101032.63
2023-09-05T23:12:30.342Z,101031.44
2023-09-05T23:15:33.146Z,101033.72
2023-09-05T23:18:38.354Z,101030.56
2023-09-05T23:21:45.104Z,101031.34
2023-09-05T23:24:48.300Z,101033.72
2023-09-05T23:27:54.180Z,101031.72
2023-09-05T23:30:57.170Z,101033.34
2023-09-05T23:34:00.233Z,101027.78
2023-09-05T23:37:04.845Z,101038.47
2023-09-05T23:40:10.103Z,101029.47
2023-09-05T23:43:17.305Z,101033.00
2023-09-05T23:46:20.312Z,101034.91
2023-09-05T23:49:23.395Z,101033.72
2023-09-05T23:52:26.328Z,101045.19
2023-09-05T23:55:29.692Z,101035.66
2023-09-05T23:58:33.268Z,101037.63
